createdAt,value
2023-03-25T00:01:25.702Z,0.80
2023-03-25T00:03:54.455Z,0.70
2023-03-25T00:06:22.854Z,0.63
2023-03-25T00:08:51.201Z,0.57
2023-03-25T00:11:19.603Z,0.50
2023-03-25T00:13:48.770Z,0.50
2023-03-25T00:16:20.034Z,0.77
2023-03-25T00:18:49.920Z,0.77
2023-03-25T00:21:19.005Z,0.50
2023-03-25T00:23:47.598Z,0.40
2023-03-25T00:26:16.400Z,0.50
2023-03-25T00:28:44.757Z,0.40
2023-03-25T00:31:15.584Z,0.53
2023-03-25T00:33:45.618Z,0.50
2023-03-25T00:36:15.304Z,0.50
2023-03-25T00:38:45.721Z,0.57
2023-03-25T00:41:22.688Z,0.40
2023-03-25T00:43:52.973Z,0.67
2023-03-25T00:46:22.851Z,0.60
2023-03-25T00:48:52.677Z,0.40
2023-03-25T00:51:21.816Z,0.70
2023-03-25T00:53:53.292Z,0.50
2023-03-25T00:56:22.237Z,0.50
2023-03-25T00:58:51.046Z,0.47
2023-03-25T01:01:23.426Z,0.40
2023-03-25T01:03:57.918Z,0.43
2023-03-25T01:06:32.514Z,0.77
2023-03-25T01:09:03.085Z,0.40
2023-03-25T01:11:35.108Z,0.50
2023-03-25T01:14:05.887Z,0.70
2023-03-25T01:16:34.339Z,0.70
2023-03-25T01:19:04.298Z,0.60
2023-03-25T01:21:33.958Z,0.60
2023-03-25T01:24:02.305Z,1.00
2023-03-25T01:26:30.844Z,0.90
2023-03-25T01:28:59.994Z,0.60
2023-03-25T01:31:30.473Z,0.50
2023-03-25T01:33:59.504Z,0.53
2023-03-25T01:36:30.564Z,0.57
2023-03-25T01:39:01.480Z,0.70
2023-03-25T01:41:39.076Z,0.60
2023-03-25T01:45:07.888Z,0.60
2023-03-25T01:47:36.789Z,0.40
2023-03-25T01:50:05.947Z,0.70
2023-03-25T01:52:35.757Z,0.60
2023-03-25T01:55:04.983Z,0.83
2023-03-25T01:57:33.732Z,0.93
2023-03-25T02:00:02.130Z,0.60
2023-03-25T02:02:41.067Z,0.63
2023-03-25T02:05:17.920Z,0.60
2023-03-25T02:07:50.521Z,0.60
2023-03-25T02:10:20.696Z,0.77
2023-03-25T02:12:49.065Z,0.80
2023-03-25T02:15:20.637Z,1.07
2023-03-25T02:18:09.777Z,0.60
2023-03-25T02:21:47.278Z,0.80
2023-03-25T02:25:07.634Z,0.67
2023-03-25T02:28:00.524Z,0.53
2023-03-25T02:30:59.427Z,0.60
2023-03-25T02:34:13.935Z,1.10
2023-03-25T02:37:30.443Z,0.90
2023-03-25T02:40:07.046Z,1.33
2023-03-25T02:42:42.482Z,1.00
2023-03-25T02:45:15.667Z,0.70
2023-03-25T02:47:49.074Z,1.00
2023-03-25T02:50:23.326Z,0.80
2023-03-25T02:52:57.080Z,0.90
2023-03-25T02:55:30.691Z,0.80
2023-03-25T02:58:00.834Z,1.50
2023-03-25T03:00:31.608Z,1.00
2023-03-25T03:03:04.150Z,0.80
2023-03-25T03:05:36.658Z,1.27
2023-03-25T03:08:24.195Z,0.93
2023-03-25T03:11:04.109Z,1.30
2023-03-25T03:13:52.687Z,1.23
2023-03-25T03:16:31.976Z,0.77
2023-03-25T03:19:10.028Z,1.03
2023-03-25T03:21:46.637Z,0.90
2023-03-25T03:24:21.350Z,0.80
2023-03-25T03:26:57.646Z,0.73
2023-03-25T03:29:32.130Z,0.60
2023-03-25T03:32:08.374Z,0.90
2023-03-25T03:34:47.036Z,1.37
2023-03-25T03:37:19.799Z,0.67
2023-03-25T03:39:50.025Z,0.80
2023-03-25T03:42:25.764Z,1.07
2023-03-25T03:45:00.576Z,0.60
2023-03-25T03:47:33.196Z,0.73
2023-03-25T03:50:09.200Z,0.73
2023-03-25T03:52:42.323Z,0.60
2023-03-25T03:55:15.903Z,0.60
2023-03-25T03:57:52.556Z,0.40
2023-03-25T04:00:26.757Z,1.47
2023-03-25T04:03:01.889Z,0.70
2023-03-25T04:05:31.728Z,0.60
2023-03-25T04:08:03.857Z,0.53
2023-03-25T04:10:41.267Z,0.90
2023-03-25T04:13:15.037Z,0.60
2023-03-25T04:15:44.551Z,0.50
2023-03-25T04:18:13.160Z,0.60
2023-03-25T04:20:44.666Z,0.80
2023-03-25T04:23:16.136Z,0.60
2023-03-25T04:25:47.778Z,0.80
2023-03-25T04:28:18.073Z,0.93
2023-03-25T04:30:48.588Z,1.10
2023-03-25T04:33:17.800Z,0.50
2023-03-25T04:35:46.975Z,0.70
2023-03-25T04:38:18.209Z,0.90
2023-03-25T04:40:47.752Z,0.60
2023-03-25T04:43:18.434Z,1.27
2023-03-25T04:45:54.470Z,1.03
2023-03-25T04:48:29.896Z,0.73
2023-03-25T04:50:59.021Z,0.83
2023-03-25T04:53:28.252Z,1.10
2023-03-25T04:55:57.202Z,1.07
2023-03-25T04:58:26.884Z,1.00
2023-03-25T05:00:55.280Z,1.10
2023-03-25T05:03:24.473Z,1.30
2023-03-25T05:05:53.585Z,1.00
2023-03-25T05:08:22.686Z,0.80
2023-03-25T05:10:51.293Z,0.80
2023-03-25T05:13:19.641Z,1.07
2023-03-25T05:15:49.577Z,0.70
2023-03-25T05:18:18.738Z,1.50
2023-03-25T05:20:51.093Z,1.03
2023-03-25T05:23:19.750Z,1.00
2023-03-25T05:25:50.558Z,1.10
2023-03-25T05:28:19.765Z,1.10
2023-03-25T05:30:49.842Z,1.27
2023-03-25T05:33:20.063Z,1.00
2023-03-25T05:35:48.683Z,1.33
2023-03-25T05:38:19.266Z,1.23
2023-03-25T05:40:48.855Z,1.30
2023-03-25T05:43:23.174Z,1.10
2023-03-25T05:45:53.220Z,1.27
2023-03-25T05:48:22.199Z,1.20
2023-03-25T05:50:50.518Z,0.90
2023-03-25T05:53:20.674Z,1.50
2023-03-25T05:55:52.347Z,1.63
2023-03-25T05:58:21.428Z,2.30
2023-03-25T06:00:49.725Z,1.40
2023-03-25T06:03:20.854Z,1.50
2023-03-25T06:05:49.474Z,1.40
2023-03-25T06:08:19.692Z,1.23
2023-03-25T06:10:48.374Z,0.93
2023-03-25T06:13:16.860Z,1.20
2023-03-25T06:15:45.240Z,1.30
2023-03-25T06:18:13.613Z,1.40
2023-03-25T06:20:43.717Z,1.40
2023-03-25T06:23:12.266Z,1.30
2023-03-25T06:25:40.550Z,1.20
2023-03-25T06:28:08.820Z,1.30
2023-03-25T06:30:38.269Z,1.23
2023-03-25T06:33:06.639Z,0.90
2023-03-25T06:35:35.175Z,1.80
2023-03-25T06:38:05.227Z,0.83
2023-03-25T06:40:49.967Z,0.93
2023-03-25T06:43:18.428Z,0.90
2023-03-25T06:46:15.052Z,0.97
2023-03-25T06:49:02.348Z,0.83
2023-03-25T06:51:30.766Z,0.90
2023-03-25T06:54:00.630Z,0.87
2023-03-25T06:56:29.062Z,1.30
2023-03-25T06:58:57.544Z,1.53
2023-03-25T07:01:26.502Z,0.60
2023-03-25T07:03:54.868Z,0.83
2023-03-25T07:06:24.599Z,0.87
2023-03-25T07:08:53.208Z,1.47
2023-03-25T07:11:27.384Z,0.93
2023-03-25T07:13:56.546Z,1.20
2023-03-25T07:16:26.947Z,1.20
2023-03-25T07:18:56.805Z,1.20
2023-03-25T07:21:25.192Z,1.50
2023-03-25T07:23:53.706Z,1.70
2023-03-25T07:26:23.426Z,1.07
2023-03-25T07:28:51.750Z,1.70
2023-03-25T07:31:20.045Z,1.87
2023-03-25T07:33:48.417Z,1.40
2023-03-25T07:36:16.730Z,1.30
2023-03-25T07:38:45.343Z,2.27
2023-03-25T07:41:14.552Z,1.30
2023-03-25T07:43:56.307Z,1.60
2023-03-25T07:46:29.443Z,2.13
2023-03-25T07:48:58.020Z,2.10
2023-03-25T07:51:26.531Z,1.33
2023-03-25T07:53:54.923Z,1.43
2023-03-25T07:56:33.661Z,1.50
2023-03-25T07:59:04.488Z,1.50
2023-03-25T08:01:32.980Z,1.57
2023-03-25T08:04:01.579Z,1.60
2023-03-25T08:06:29.940Z,1.47
2023-03-25T08:08:58.356Z,1.80
2023-03-25T08:11:26.737Z,1.63
2023-03-25T08:13:55.076Z,1.67
2023-03-25T08:16:24.986Z,1.30
2023-03-25T08:18:53.827Z,1.97
2023-03-25T08:21:25.279Z,1.80
2023-03-25T08:23:58.350Z,1.70
2023-03-25T08:26:27.175Z,1.93
2023-03-25T08:28:57.851Z,2.37
2023-03-25T08:31:31.205Z,2.80
2023-03-25T08:34:00.031Z,2.10
2023-03-25T08:36:28.871Z,3.13
2023-03-25T08:38:57.445Z,2.20
2023-03-25T08:41:26.736Z,1.87
2023-03-25T08:43:55.106Z,2.43
2023-03-25T08:46:23.484Z,2.27
2023-03-25T08:48:53.864Z,1.73
2023-03-25T08:51:22.452Z,2.90
2023-03-25T08:53:51.083Z,3.30
2023-03-25T08:56:19.524Z,1.70
2023-03-25T08:58:47.907Z,2.10
2023-03-25T09:01:16.322Z,2.30
2023-03-25T09:03:44.864Z,3.03
2023-03-25T09:06:14.623Z,2.20
2023-03-25T09:08:42.994Z,2.87
2023-03-25T09:11:12.100Z,2.20
2023-03-25T09:13:40.555Z,2.10
2023-03-25T09:16:10.968Z,2.40
2023-03-25T09:18:39.487Z,2.17
2023-03-25T09:21:08.423Z,3.10
2023-03-25T09:23:38.170Z,2.23
2023-03-25T09:26:07.630Z,2.10
2023-03-25T09:28:36.177Z,2.07
2023-03-25T09:31:04.682Z,1.93
2023-03-25T09:33:33.458Z,2.50
2023-03-25T09:36:02.455Z,1.87
2023-03-25T09:38:30.997Z,2.13
2023-03-25T09:41:02.107Z,1.97
2023-03-25T09:43:40.628Z,2.57
2023-03-25T09:46:10.396Z,2.07
2023-03-25T09:48:41.890Z,1.70
2023-03-25T09:51:20.445Z,2.23
2023-03-25T09:53:53.127Z,1.43
2023-03-25T09:56:26.116Z,0.87
2023-03-25T09:58:58.681Z,1.03
2023-03-25T10:01:38.836Z,1.00
2023-03-25T10:04:49.548Z,0.90
2023-03-25T10:07:44.358Z,0.60
2023-03-25T10:10:21.697Z,0.60
2023-03-25T10:13:06.937Z,0.87
2023-03-25T10:15:43.725Z,1.20
2023-03-25T10:18:43.806Z,1.07
2023-03-25T10:21:18.554Z,1.70
2023-03-25T10:23:56.938Z,1.27
2023-03-25T10:26:31.419Z,1.10
2023-03-25T10:29:06.424Z,1.30
2023-03-25T10:31:40.648Z,2.03
2023-03-25T10:34:16.158Z,0.87
2023-03-25T10:36:49.723Z,0.90
2023-03-25T10:39:21.439Z,1.10
2023-03-25T10:41:56.564Z,0.80
2023-03-25T10:44:29.033Z,0.70
2023-03-25T10:47:05.951Z,0.70
2023-03-25T10:49:37.158Z,0.90
2023-03-25T10:52:05.753Z,0.63
2023-03-25T10:54:39.362Z,0.70
2023-03-25T10:57:11.069Z,0.90
2023-03-25T10:59:45.441Z,0.70
2023-03-25T11:02:20.261Z,1.20
2023-03-25T11:04:53.943Z,1.03
2023-03-25T11:07:30.208Z,1.30
2023-03-25T11:10:12.372Z,1.00
2023-03-25T11:12:45.229Z,1.20
2023-03-25T11:15:20.527Z,1.07
2023-03-25T11:17:58.021Z,1.33
2023-03-25T11:20:31.968Z,0.73
2023-03-25T11:23:07.798Z,1.40
2023-03-25T11:25:42.111Z,1.20
2023-03-25T11:28:19.308Z,1.03
2023-03-25T11:31:13.634Z,2.70
2023-03-25T11:33:44.381Z,1.43
2023-03-25T11:36:23.561Z,1.50
2023-03-25T11:39:00.614Z,1.30
2023-03-25T11:41:35.371Z,1.60
2023-03-25T11:44:06.108Z,1.20
2023-03-25T11:46:42.920Z,1.13
2023-03-25T11:49:12.593Z,1.40
2023-03-25T11:51:41.234Z,1.17
2023-03-25T11:54:14.366Z,1.30
2023-03-25T11:56:45.544Z,0.97
2023-03-25T11:59:23.972Z,1.00
2023-03-25T12:02:02.959Z,1.13
2023-03-25T12:04:32.435Z,1.00
2023-03-25T12:07:03.423Z,1.57
2023-03-25T12:09:33.561Z,1.13
2023-03-25T12:12:32.341Z,1.60
2023-03-25T12:15:18.195Z,1.37
2023-03-25T12:18:02.756Z,1.20
2023-03-25T12:20:42.381Z,1.53
2023-03-25T12:23:26.356Z,0.90
2023-03-25T12:26:06.774Z,1.10
2023-03-25T12:29:24.290Z,1.20
2023-03-25T12:32:09.840Z,0.80
2023-03-25T12:34:53.220Z,1.17
2023-03-25T12:37:32.451Z,0.90
2023-03-25T12:40:25.183Z,0.90
2023-03-25T12:43:06.326Z,1.00
2023-03-25T12:45:57.584Z,1.10
2023-03-25T12:48:53.105Z,0.90
2023-03-25T12:51:34.584Z,1.40
2023-03-25T12:54:20.451Z,1.30
2023-03-25T12:56:59.153Z,1.03
2023-03-25T12:59:53.854Z,0.90
2023-03-25T13:02:49.901Z,1.00
2023-03-25T13:05:23.218Z,1.63
2023-03-25T13:07:59.591Z,1.40
2023-03-25T13:10:33.886Z,0.83
2023-03-25T13:13:06.888Z,1.27
2023-03-25T13:15:39.844Z,1.13
2023-03-25T13:18:13.942Z,1.20
2023-03-25T13:20:49.676Z,0.80
2023-03-25T13:23:24.458Z,0.87
2023-03-25T13:25:57.677Z,1.53
2023-03-25T13:28:38.322Z,1.10
2023-03-25T13:31:13.570Z,1.27
2023-03-25T13:33:46.873Z,1.37
2023-03-25T13:36:22.287Z,1.00
2023-03-25T13:38:56.424Z,1.60
2023-03-25T13:41:31.242Z,1.97
2023-03-25T13:44:05.969Z,1.27
2023-03-25T13:46:39.998Z,0.90
2023-03-25T13:49:18.277Z,0.90
2023-03-25T13:51:47.970Z,0.83
2023-03-25T13:54:23.088Z,1.20
2023-03-25T13:57:30.600Z,0.90
2023-03-25T14:00:56.111Z,0.90
2023-03-25T14:04:08.159Z,1.30
2023-03-25T14:07:32.677Z,1.40
2023-03-25T14:10:29.859Z,1.47
2023-03-25T14:13:01.838Z,1.40
2023-03-25T14:15:34.125Z,1.10
2023-03-25T14:18:03.785Z,0.63
2023-03-25T14:20:37.465Z,0.80
2023-03-25T14:23:14.071Z,1.43
2023-03-25T14:25:48.014Z,1.30
2023-03-25T14:28:21.364Z,1.50
2023-03-25T14:31:09.066Z,1.60
2023-03-25T14:34:34.252Z,1.03
2023-03-25T14:37:32.144Z,1.60
2023-03-25T14:40:11.227Z,1.23
2023-03-25T14:43:00.427Z,1.17
2023-03-25T14:45:48.174Z,1.70
2023-03-25T14:48:45.875Z,1.27
2023-03-25T14:51:45.007Z,1.20
2023-03-25T14:54:29.829Z,1.17
2023-03-25T14:57:06.145Z,1.20
2023-03-25T14:59:41.333Z,1.80
2023-03-25T15:02:18.079Z,1.47
2023-03-25T15:04:53.992Z,2.03
2023-03-25T15:07:44.282Z,1.67
2023-03-25T15:10:26.561Z,1.30
2023-03-25T15:13:02.495Z,1.30
2023-03-25T15:15:35.660Z,1.53
2023-03-25T15:18:04.252Z,1.30
2023-03-25T15:20:37.751Z,1.30
2023-03-25T15:23:40.867Z,1.60
2023-03-25T15:26:16.272Z,1.33
2023-03-25T15:29:03.241Z,1.40
2023-03-25T15:32:07.504Z,1.20
2023-03-25T15:35:06.574Z,1.20
2023-03-25T15:38:32.538Z,1.10
2023-03-25T15:41:24.097Z,1.90
2023-03-25T15:44:51.707Z,1.80
2023-03-25T15:47:48.315Z,1.30
2023-03-25T15:50:39.050Z,2.17
2023-03-25T15:53:42.785Z,1.40
2023-03-25T15:56:14.951Z,1.70
2023-03-25T15:58:53.742Z,1.70
2023-03-25T16:01:29.406Z,2.10
2023-03-25T16:04:05.821Z,2.10
2023-03-25T16:06:41.482Z,1.30
2023-03-25T16:09:18.107Z,1.50
2023-03-25T16:11:47.660Z,1.70
2023-03-25T16:14:18.342Z,2.73
2023-03-25T16:16:51.928Z,2.30
2023-03-25T16:19:26.563Z,1.70
2023-03-25T16:21:56.142Z,1.90
2023-03-25T16:24:29.925Z,1.90
2023-03-25T16:26:58.362Z,1.80
2023-03-25T16:29:27.656Z,2.43
2023-03-25T16:32:00.015Z,1.50
2023-03-25T16:34:37.945Z,1.90
2023-03-25T16:37:08.152Z,1.60
2023-03-25T16:39:38.886Z,1.60
2023-03-25T16:42:27.454Z,1.63
2023-03-25T16:44:56.221Z,1.80
2023-03-25T16:47:24.871Z,1.93
2023-03-25T16:49:57.072Z,1.80
2023-03-25T16:52:28.630Z,1.40
2023-03-25T16:55:34.922Z,1.13
2023-03-25T16:58:04.264Z,1.50
2023-03-25T17:00:43.754Z,2.73
2023-03-25T17:03:21.693Z,1.73
2023-03-25T17:05:59.360Z,1.30
2023-03-25T17:08:29.389Z,2.37
2023-03-25T17:11:00.776Z,2.03
2023-03-25T17:13:32.755Z,3.50
2023-03-25T17:16:01.378Z,1.87
2023-03-25T17:18:33.153Z,2.87
2023-03-25T17:21:03.170Z,1.80
2023-03-25T17:23:45.745Z,2.00
2023-03-25T17:26:17.504Z,2.57
2023-03-25T17:29:00.099Z,2.30
2023-03-25T17:31:34.038Z,1.70
2023-03-25T17:34:07.457Z,2.87
2023-03-25T17:36:41.940Z,3.00
2023-03-25T17:39:20.090Z,2.73
2023-03-25T17:41:58.895Z,2.90
2023-03-25T17:44:32.626Z,2.40
2023-03-25T17:47:01.285Z,3.90
2023-03-25T17:49:29.676Z,2.97
2023-03-25T17:51:59.366Z,4.10
2023-03-25T17:54:27.986Z,3.37
2023-03-25T17:56:56.355Z,3.00
2023-03-25T17:59:26.896Z,2.10
2023-03-25T18:01:55.553Z,2.60
2023-03-25T18:04:24.745Z,2.67
2023-03-25T18:06:53.147Z,2.23
2023-03-25T18:09:25.360Z,2.93
2023-03-25T18:11:56.975Z,2.53
2023-03-25T18:14:26.328Z,2.50
2023-03-25T18:16:56.329Z,3.67
2023-03-25T18:19:27.555Z,2.87
2023-03-25T18:21:56.897Z,3.13
2023-03-25T18:24:27.602Z,3.30
2023-03-25T18:26:58.038Z,2.30
2023-03-25T18:29:28.852Z,2.33
2023-03-25T18:31:57.536Z,1.73
2023-03-25T18:34:26.144Z,2.83
2023-03-25T18:36:55.010Z,1.47
2023-03-25T18:39:27.544Z,1.50
2023-03-25T18:41:56.074Z,1.17
2023-03-25T18:44:27.653Z,1.70
2023-03-25T18:46:56.080Z,1.80
2023-03-25T18:49:24.668Z,2.07
2023-03-25T18:51:53.006Z,2.80
2023-03-25T18:54:21.425Z,1.57
2023-03-25T18:56:51.179Z,1.57
2023-03-25T18:59:20.683Z,2.00
2023-03-25T19:01:49.190Z,2.37
2023-03-25T19:04:18.249Z,1.97
2023-03-25T19:06:46.645Z,2.30
2023-03-25T19:09:19.309Z,1.90
2023-03-25T19:11:48.182Z,1.60
2023-03-25T19:14:18.310Z,2.07
2023-03-25T19:19:18.062Z,1.77
2023-03-25T19:21:46.521Z,2.23
2023-03-25T19:24:14.896Z,2.10
2023-03-25T19:26:43.372Z,1.90
2023-03-25T19:29:11.767Z,1.60
2023-03-25T19:31:42.401Z,1.60
2023-03-25T19:34:10.970Z,1.20
2023-03-25T19:36:39.369Z,1.20
2023-03-25T19:39:09.558Z,1.60
2023-03-25T19:41:42.740Z,1.23
2023-03-25T19:44:11.211Z,1.20
2023-03-25T19:46:40.993Z,3.40
2023-03-25T19:49:09.378Z,2.87
2023-03-25T19:51:37.720Z,1.80
2023-03-25T19:54:06.744Z,0.70
2023-03-25T19:56:35.082Z,1.17
2023-03-25T19:59:03.428Z,1.03
2023-03-25T20:01:32.592Z,0.70
2023-03-25T20:04:02.424Z,0.80
2023-03-25T20:06:30.918Z,1.17
2023-03-25T20:08:59.234Z,1.20
2023-03-25T20:11:27.619Z,1.60
2023-03-25T20:13:56.240Z,0.90
2023-03-25T20:16:24.812Z,0.90
2023-03-25T20:18:53.464Z,1.03
2023-03-25T20:21:24.836Z,1.10
2023-03-25T20:23:53.217Z,0.80
2023-03-25T20:26:21.608Z,0.83
2023-03-25T20:28:50.609Z,1.10
2023-03-25T20:31:21.580Z,1.40
2023-03-25T20:33:51.301Z,1.10
2023-03-25T20:36:22.502Z,1.63
2023-03-25T20:38:57.789Z,1.90
2023-03-25T20:41:27.304Z,2.13
2023-03-25T20:43:55.742Z,1.30
2023-03-25T20:46:28.319Z,2.30
2023-03-25T20:48:57.284Z,1.47
2023-03-25T20:51:27.108Z,1.87
2023-03-25T20:53:57.043Z,1.57
2023-03-25T20:56:25.851Z,1.77
2023-03-25T20:58:54.313Z,1.23
2023-03-25T21:01:23.550Z,1.77
2023-03-25T21:03:52.175Z,3.20
2023-03-25T21:06:24.023Z,2.17
2023-03-25T21:08:54.736Z,2.63
2023-03-25T21:11:23.814Z,1.77
2023-03-25T21:13:52.260Z,3.43
2023-03-25T21:16:20.772Z,2.30
2023-03-25T21:18:50.494Z,2.63
2023-03-25T21:21:20.104Z,2.83
2023-03-25T21:23:49.195Z,1.83
2023-03-25T21:26:19.152Z,1.60
2023-03-25T21:28:48.638Z,2.23
2023-03-25T21:31:22.024Z,1.50
2023-03-25T21:33:52.547Z,1.57
2023-03-25T21:36:24.440Z,1.97
2023-03-25T21:38:57.500Z,1.93
2023-03-25T21:41:29.792Z,2.10
2023-03-25T21:43:58.347Z,2.33
2023-03-25T21:46:27.765Z,1.60
2023-03-25T21:48:59.577Z,2.30
2023-03-25T21:51:30.400Z,1.40
2023-03-25T21:54:00.417Z,1.20
2023-03-25T21:56:33.499Z,1.50
2023-03-25T21:59:04.538Z,1.10
2023-03-25T22:01:33.355Z,1.77
2023-03-25T22:04:03.790Z,1.83
2023-03-25T22:06:35.693Z,1.50
2023-03-25T22:09:06.433Z,1.70
2023-03-25T22:11:38.166Z,1.80
2023-03-25T22:14:07.131Z,1.60
2023-03-25T22:16:36.002Z,1.73
2023-03-25T22:19:06.786Z,2.00
2023-03-25T22:21:37.398Z,1.50
2023-03-25T22:24:08.642Z,1.50
2023-03-25T22:26:40.457Z,1.37
2023-03-25T22:29:11.514Z,1.63
2023-03-25T22:31:41.129Z,1.43
2023-03-25T22:34:13.117Z,1.90
2023-03-25T22:36:46.246Z,1.30
2023-03-25T22:39:14.698Z,1.27
2023-03-25T22:41:44.491Z,1.20
2023-03-25T22:44:14.983Z,3.03
2023-03-25T22:46:43.385Z,1.23
2023-03-25T22:49:11.903Z,1.63
2023-03-25T22:51:40.356Z,1.40
2023-03-25T22:54:09.807Z,1.70
2023-03-25T22:56:38.493Z,1.63
2023-03-25T22:59:09.425Z,1.60
2023-03-25T23:01:38.724Z,1.70
2023-03-25T23:04:07.171Z,1.80
2023-03-25T23:06:36.622Z,2.13
2023-03-25T23:09:09.027Z,1.43
2023-03-25T23:11:38.603Z,1.17
2023-03-25T23:14:12.067Z,1.27
2023-03-25T23:16:41.681Z,1.33
2023-03-25T23:19:10.593Z,1.40
2023-03-25T23:21:40.598Z,1.60
2023-03-25T23:24:09.816Z,0.97
2023-03-25T23:26:41.619Z,1.00
2023-03-25T23:29:12.986Z,1.57
2023-03-25T23:31:43.979Z,1.87
2023-03-25T23:34:15.506Z,1.67
2023-03-25T23:36:45.404Z,1.50
2023-03-25T23:39:22.721Z,1.70
2023-03-25T23:41:51.578Z,1.53
2023-03-25T23:44:21.459Z,1.20
2023-03-25T23:46:51.308Z,1.33
2023-03-25T23:49:20.273Z,2.00
2023-03-25T23:51:48.721Z,1.50
2023-03-25T23:54:18.154Z,1.13
2023-03-25T23:56:46.680Z,1.33
2023-03-25T23:59:15.127Z,1.60
